Time;durP1;ratioP1;P1;durP2;ratioP2;P2;SDS_P1;SDS_P2;PMS_P1;PMS_P2;Temp;Humidity;BMP_temperature;BMP_pressure;BME280_temperature;BME280_humidity;BME280_pressure;Samples;Min_cycle;Max_cycle;Signal;HPM_P1;HPM_P2
2021/09/28 00:01:21;;;;;;;39.28;20.70;;;23.10;59.60;;;;;;6294536;28;20388;-72
2021/09/28 00:04:22;;;;;;;35.65;19.77;;;23.10;59.70;;;;;;6293861;28;20029;-71
2021/09/28 00:07:23;;;;;;;35.15;18.88;;;23.10;59.60;;;;;;6294320;28;20476;-71
2021/09/28 00:10:24;;;;;;;32.15;18.35;;;23.10;59.60;;;;;;6293725;28;20610;-71
2021/09/28 00:13:24;;;;;;;33.45;19.50;;;23.10;59.60;;;;;;6293626;28;20515;-72
2021/09/28 00:16:25;;;;;;;33.80;18.42;;;23.10;59.60;;;;;;6270525;28;20289;-72
2021/09/28 00:19:25;;;;;;;32.20;17.85;;;23.10;59.60;;;;;;6290625;28;20035;-72
2021/09/28 00:22:26;;;;;;;32.22;18.20;;;23.10;59.70;;;;;;6293769;28;20032;-72
2021/09/28 00:25:26;;;;;;;33.03;17.33;;;23.10;59.60;;;;;;6293466;28;20417;-72
2021/09/28 00:28:28;;;;;;;31.83;17.17;;;23.10;59.60;;;;;;6293083;28;20031;-72
2021/09/28 00:31:29;;;;;;;32.28;16.65;;;23.10;59.60;;;;;;6293428;28;20116;-73
2021/09/28 00:34:29;;;;;;;28.92;16.38;;;23.10;59.60;;;;;;6293443;28;20020;-71
2021/09/28 00:37:30;;;;;;;27.45;16.48;;;23.10;59.60;;;;;;6293489;28;20380;-71
2021/09/28 00:40:31;;;;;;;31.05;15.57;;;23.10;59.60;;;;;;6293293;28;20074;-72
2021/09/28 00:43:49;;;;;;;26.50;16.02;;;23.10;59.60;;;;;;6293105;28;20236;-72
2021/09/28 00:46:49;;;;;;;28.27;14.98;;;23.10;59.60;;;;;;6293496;28;20479;-72
2021/09/28 00:49:50;;;;;;;28.20;16.05;;;23.10;59.60;;;;;;6292911;28;20033;-71
2021/09/28 00:52:50;;;;;;;28.80;15.52;;;23.10;59.50;;;;;;6292072;28;20531;-71
2021/09/28 00:55:51;;;;;;;27.55;14.65;;;23.10;59.60;;;;;;6292730;28;20069;-72
2021/09/28 00:58:52;;;;;;;24.48;13.43;;;23.10;59.60;;;;;;6292561;28;20071;-71
2021/09/28 01:01:52;;;;;;;29.23;14.20;;;23.10;59.60;;;;;;6292190;28;20156;-72
2021/09/28 01:04:53;;;;;;;24.90;13.73;;;23.10;59.60;;;;;;6292653;28;20020;-71
2021/09/28 01:07:53;;;;;;;23.63;13.65;;;23.10;59.60;;;;;;6292426;28;20499;-72
2021/09/28 01:10:55;;;;;;;21.15;12.93;;;23.10;59.60;;;;;;6292151;28;20052;-72
2021/09/28 01:13:55;;;;;;;23.05;12.80;;;23.10;59.60;;;;;;6289518;28;20032;-72
2021/09/28 01:16:56;;;;;;;24.08;13.18;;;23.10;59.60;;;;;;6281336;28;20039;-71
2021/09/28 01:19:56;;;;;;;21.25;12.30;;;23.10;59.60;;;;;;6291835;28;20423;-71
2021/09/28 01:22:57;;;;;;;22.73;12.88;;;23.10;59.60;;;;;;6291884;28;20036;-72
2021/09/28 01:25:58;;;;;;;20.33;12.00;;;23.10;60.40;;;;;;6291365;28;20077;-72
2021/09/28 01:29:02;;;;;;;25.92;13.23;;;23.10;59.50;;;;;;6292310;28;20058;-72
2021/09/28 01:32:03;;;;;;;22.30;12.55;;;23.10;59.50;;;;;;6291469;28;20421;-72
2021/09/28 01:35:06;;;;;;;20.58;12.15;;;23.10;59.50;;;;;;6292106;28;20635;-72
2021/09/28 01:38:07;;;;;;;21.95;12.10;;;23.10;59.50;;;;;;6291693;28;20066;-72
2021/09/28 01:41:08;;;;;;;20.55;11.43;;;23.10;59.60;;;;;;6291394;28;20028;-72
2021/09/28 01:44:13;;;;;;;20.08;11.43;;;23.10;59.60;;;;;;6285800;28;20108;-72
2021/09/28 01:47:13;;;;;;;19.00;10.40;;;23.10;59.50;;;;;;6291379;28;20052;-72
2021/09/28 01:50:14;;;;;;;20.05;11.43;;;23.10;59.60;;;;;;6291266;28;20332;-71
2021/09/28 01:53:14;;;;;;;19.13;10.85;;;23.10;59.50;;;;;;6291267;28;20024;-72
2021/09/28 01:56:19;;;;;;;17.45;10.40;;;23.10;59.50;;;;;;6291308;28;20621;-72
2021/09/28 01:59:20;;;;;;;17.80;10.43;;;23.10;59.50;;;;;;6291097;28;20056;-72
2021/09/28 02:02:20;;;;;;;18.25;11.18;;;23.10;59.50;;;;;;6291352;28;20038;-72
2021/09/28 02:05:21;;;;;;;17.67;10.27;;;23.10;59.60;;;;;;6290956;28;20050;-72
2021/09/28 02:08:22;;;;;;;17.55;10.23;;;23.10;59.60;;;;;;6290942;28;20043;-71
2021/09/28 02:11:22;;;;;;;19.45;10.55;;;23.10;59.50;;;;;;6291312;28;20415;-72
2021/09/28 02:14:28;;;;;;;18.55;10.13;;;23.10;59.60;;;;;;6284110;28;20062;-72
2021/09/28 02:17:28;;;;;;;16.02;9.80;;;23.10;59.50;;;;;;6271839;28;20052;-71
2021/09/28 02:20:29;;;;;;;15.77;9.20;;;23.10;59.50;;;;;;6290648;28;20527;-72
2021/09/28 02:23:30;;;;;;;16.50;9.98;;;23.10;59.50;;;;;;6290579;28;20043;-72
2021/09/28 02:26:30;;;;;;;14.10;8.98;;;23.10;59.60;;;;;;6290797;28;20071;-72
2021/09/28 02:29:31;;;;;;;14.50;9.15;;;23.10;59.50;;;;;;6290487;28;20122;-72
2021/09/28 02:32:31;;;;;;;13.23;8.52;;;23.10;59.50;;;;;;6290583;28;20044;-71
2021/09/28 02:35:32;;;;;;;14.70;8.48;;;23.10;59.50;;;;;;6290693;28;20105;-72
2021/09/28 02:38:33;;;;;;;16.55;8.75;;;23.10;59.50;;;;;;6290272;28;20055;-72
2021/09/28 02:41:33;;;;;;;16.08;8.63;;;23.10;59.50;;;;;;6289806;28;20028;-71
2021/09/28 02:44:34;;;;;;;15.50;9.00;;;23.10;59.50;;;;;;6290350;28;20029;-72
2021/09/28 02:47:34;;;;;;;14.05;8.38;;;23.10;59.60;;;;;;6290203;28;20021;-71
2021/09/28 02:50:35;;;;;;;13.20;8.25;;;23.10;59.50;;;;;;6291121;28;20237;-72
2021/09/28 02:53:35;;;;;;;12.50;7.55;;;23.10;59.50;;;;;;6289852;28;20056;-71
2021/09/28 02:56:36;;;;;;;12.07;7.38;;;23.10;59.50;;;;;;6290516;28;20507;-71
2021/09/28 02:59:38;;;;;;;13.88;8.13;;;23.10;59.50;;;;;;6290285;28;20108;-72
2021/09/28 03:02:38;;;;;;;12.40;7.63;;;23.10;59.50;;;;;;6290457;28;20021;-71
2021/09/28 03:05:38;;;;;;;13.38;7.63;;;23.10;59.50;;;;;;6290118;28;20433;-72
2021/09/28 03:08:39;;;;;;;13.10;8.10;;;23.10;59.50;;;;;;6289738;28;20071;-72
2021/09/28 03:11:40;;;;;;;12.00;7.22;;;23.10;59.50;;;;;;6290189;28;20033;-72
2021/09/28 03:14:40;;;;;;;11.48;6.95;;;23.10;59.50;;;;;;6281023;28;20151;-72
2021/09/28 03:17:41;;;;;;;11.98;6.80;;;23.10;59.50;;;;;;6288137;28;20047;-72
2021/09/28 03:20:42;;;;;;;11.98;7.38;;;23.10;59.50;;;;;;6295310;28;20055;-71
2021/09/28 03:23:42;;;;;;;11.88;7.20;;;23.10;59.50;;;;;;6294800;28;20032;-71
2021/09/28 03:26:43;;;;;;;11.20;7.10;;;23.10;59.50;;;;;;6294688;28;20024;-72
2021/09/28 03:29:44;;;;;;;11.10;6.60;;;23.10;59.50;;;;;;6294612;28;20472;-72
2021/09/28 03:32:45;;;;;;;10.60;6.60;;;23.10;59.50;;;;;;6294625;28;20020;-71
2021/09/28 03:35:45;;;;;;;11.13;6.30;;;23.10;59.50;;;;;;6294765;28;20051;-71
2021/09/28 03:38:46;;;;;;;11.70;7.18;;;23.10;59.50;;;;;;6294855;28;20107;-71
2021/09/28 03:41:46;;;;;;;8.82;6.35;;;23.10;59.50;;;;;;6294165;28;20028;-72
2021/09/28 03:44:47;;;;;;;9.73;6.13;;;23.10;59.50;;;;;;6294815;28;20410;-71
2021/09/28 03:47:47;;;;;;;10.10;6.43;;;23.10;59.50;;;;;;6293576;28;20068;-72
2021/09/28 03:50:48;;;;;;;11.30;6.38;;;23.10;59.50;;;;;;6294553;28;20056;-72
2021/09/28 03:53:51;;;;;;;10.27;6.47;;;23.10;60.20;;;;;;6294200;28;20491;-72
2021/09/28 03:56:51;;;;;;;9.65;5.93;;;23.10;59.50;;;;;;6294629;28;20027;-72
2021/09/28 04:00:45;;;;;;;9.75;6.43;;;23.10;59.50;;;;;;6294172;28;20353;-71
2021/09/28 04:03:45;;;;;;;8.60;5.50;;;23.10;59.50;;;;;;6294197;28;20099;-71
2021/09/28 04:06:46;;;;;;;9.98;6.10;;;23.10;59.50;;;;;;6293886;28;20425;-72
2021/09/28 04:09:46;;;;;;;10.45;6.50;;;23.10;59.50;;;;;;6293551;28;20063;-72
2021/09/28 04:12:47;;;;;;;9.15;5.43;;;23.10;59.50;;;;;;6293604;28;20029;-72
2021/09/28 04:15:48;;;;;;;9.27;5.88;;;23.10;59.50;;;;;;6276174;28;20025;-71
2021/09/28 04:18:49;;;;;;;7.68;4.93;;;23.10;59.50;;;;;;6284000;28;20033;-72
2021/09/28 04:21:50;;;;;;;7.90;5.50;;;23.10;59.50;;;;;;6293557;28;20522;-71
2021/09/28 04:24:51;;;;;;;6.88;4.97;;;23.10;59.50;;;;;;6293877;28;20021;-71
2021/09/28 04:27:52;;;;;;;7.93;4.68;;;23.10;59.50;;;;;;6292428;28;20025;-71
2021/09/28 04:30:52;;;;;;;8.65;5.03;;;23.10;59.50;;;;;;6293815;28;20028;-71
2021/09/28 04:33:53;;;;;;;8.40;5.63;;;23.10;59.50;;;;;;6293286;28;20016;-71
2021/09/28 04:36:53;;;;;;;8.02;4.90;;;23.10;59.50;;;;;;6293297;28;20020;-71
2021/09/28 04:39:54;;;;;;;6.80;4.75;;;23.10;59.50;;;;;;6293379;28;20066;-71
2021/09/28 04:42:54;;;;;;;9.45;5.55;;;23.10;59.50;;;;;;6293405;28;20029;-71
2021/09/28 04:45:55;;;;;;;7.82;5.20;;;23.10;59.50;;;;;;6293680;28;20443;-71
2021/09/28 04:48:56;;;;;;;8.00;4.97;;;23.10;59.50;;;;;;6292727;28;20218;-71
2021/09/28 04:51:56;;;;;;;7.15;4.65;;;23.10;59.50;;;;;;6292496;28;20028;-71
2021/09/28 04:54:57;;;;;;;7.72;4.82;;;23.10;59.50;;;;;;6292656;28;20032;-71
2021/09/28 04:57:57;;;;;;;7.32;4.75;;;23.10;59.50;;;;;;6292617;28;20020;-72
2021/09/28 05:00:58;;;;;;;7.63;4.60;;;23.10;59.50;;;;;;6289422;28;20429;-71
2021/09/28 05:03:58;;;;;;;6.22;4.03;;;23.10;59.50;;;;;;6287920;28;20090;-71
2021/09/28 05:06:59;;;;;;;6.38;4.50;;;23.10;59.50;;;;;;6292434;28;20063;-72
2021/09/28 05:09:59;;;;;;;6.90;3.97;;;23.10;59.50;;;;;;6292613;28;20473;-71
2021/09/28 05:13:00;;;;;;;7.30;4.20;;;23.10;59.50;;;;;;6291865;28;20035;-72
2021/09/28 05:16:00;;;;;;;7.38;4.60;;;23.10;59.50;;;;;;6278850;28;20020;-72
2021/09/28 05:19:02;;;;;;;6.18;4.13;;;23.10;59.50;;;;;;6292130;28;20033;-72
2021/09/28 05:22:03;;;;;;;5.35;3.92;;;23.10;59.50;;;;;;6292103;28;20032;-70
2021/09/28 05:25:04;;;;;;;5.30;3.58;;;23.10;59.50;;;;;;6291990;28;20028;-71
2021/09/28 05:28:05;;;;;;;5.63;3.83;;;23.10;59.50;;;;;;6291335;28;20047;-72
2021/09/28 05:31:05;;;;;;;5.90;3.45;;;23.10;59.50;;;;;;6291452;28;20316;-71
2021/09/28 05:34:06;;;;;;;6.85;4.07;;;23.10;59.50;;;;;;6292168;28;20021;-71
2021/09/28 05:37:07;;;;;;;5.38;3.40;;;23.10;59.50;;;;;;6291678;28;20105;-72
2021/09/28 05:40:07;;;;;;;5.95;3.65;;;23.10;59.50;;;;;;6290537;28;20025;-71
2021/09/28 05:43:08;;;;;;;5.35;3.50;;;23.10;59.50;;;;;;6290895;28;20103;-72
2021/09/28 05:46:08;;;;;;;5.60;3.85;;;23.10;59.50;;;;;;6291636;28;20039;-72
2021/09/28 05:49:09;;;;;;;5.28;3.53;;;23.10;59.50;;;;;;6291123;28;20047;-71
2021/09/28 05:52:12;;;;;;;4.75;3.30;;;23.10;59.50;;;;;;6291238;28;20100;-72
2021/09/28 05:55:13;;;;;;;4.50;3.40;;;23.10;59.50;;;;;;6291396;28;20028;-71
2021/09/28 05:58:14;;;;;;;6.22;3.75;;;23.10;59.50;;;;;;6291135;28;20056;-72
2021/09/28 06:01:14;;;;;;;5.57;3.70;;;23.10;60.20;;;;;;6284140;28;20572;-71
2021/09/28 06:04:15;;;;;;;5.05;3.33;;;23.10;59.50;;;;;;6291732;28;20150;-72
2021/09/28 06:07:17;;;;;;;4.63;3.00;;;23.10;59.50;;;;;;6293572;28;20025;-71
2021/09/28 06:10:18;;;;;;;3.88;2.90;;;23.10;59.50;;;;;;6293713;28;20045;-71
2021/09/28 06:13:19;;;;;;;4.38;2.88;;;23.10;59.40;;;;;;6293248;28;20021;-72
2021/09/28 06:16:19;;;;;;;4.63;2.95;;;23.10;59.40;;;;;;6271216;28;20028;-71
2021/09/28 06:19:20;;;;;;;4.40;3.10;;;23.10;59.50;;;;;;6266846;28;20066;-71
2021/09/28 06:22:20;;;;;;;3.75;2.83;;;23.10;59.50;;;;;;6289613;28;20487;-72
2021/09/28 06:25:21;;;;;;;10.18;2.97;;;23.10;59.50;;;;;;6292713;28;20048;-72
2021/09/28 06:28:22;;;;;;;4.40;2.83;;;23.10;59.30;;;;;;6290560;28;20029;-71
2021/09/28 06:31:22;;;;;;;4.63;2.85;;;23.10;58.70;;;;;;6290865;28;20032;-72
2021/09/28 06:34:24;;;;;;;6.20;3.15;;;23.10;59.00;;;;;;6291760;28;20516;-72
2021/09/28 06:37:24;;;;;;;5.90;2.50;;;23.10;59.10;;;;;;6289009;28;20035;-72
2021/09/28 06:40:25;;;;;;;6.88;2.60;;;23.10;59.20;;;;;;6291645;28;20013;-71
2021/09/28 06:43:25;;;;;;;4.18;2.60;;;23.10;59.20;;;;;;6291861;28;20506;-72
2021/09/28 06:46:26;;;;;;;5.13;2.80;;;23.10;59.20;;;;;;6292082;28;20067;-72
2021/09/28 06:49:27;;;;;;;4.63;2.30;;;23.10;59.20;;;;;;6291910;28;20541;-72
2021/09/28 06:52:27;;;;;;;6.22;2.22;;;23.10;59.20;;;;;;6291699;28;20021;-73
2021/09/28 06:55:28;;;;;;;4.13;2.58;;;23.10;59.30;;;;;;6292106;28;20025;-71
2021/09/28 06:58:28;;;;;;;4.03;2.67;;;23.10;59.30;;;;;;6291255;28;20032;-71
2021/09/28 07:01:29;;;;;;;5.03;2.40;;;23.10;59.30;;;;;;6292475;28;20024;-72
2021/09/28 07:04:29;;;;;;;3.60;2.13;;;23.10;59.30;;;;;;6291154;28;20020;-72
2021/09/28 07:07:30;;;;;;;3.05;2.20;;;23.10;59.30;;;;;;6291726;28;20040;-72
2021/09/28 07:10:31;;;;;;;4.95;2.50;;;23.10;59.30;;;;;;6291650;28;20076;-72
2021/09/28 07:13:31;;;;;;;4.45;2.15;;;23.10;59.30;;;;;;6292591;28;20028;-72
2021/09/28 07:16:32;;;;;;;3.92;2.40;;;23.10;59.30;;;;;;6278314;28;20102;-72
2021/09/28 07:19:32;;;;;;;4.35;2.33;;;23.10;59.40;;;;;;6292314;28;20081;-72
2021/09/28 07:22:33;;;;;;;5.18;2.50;;;23.10;59.40;;;;;;6292330;28;20104;-72
2021/09/28 07:25:34;;;;;;;6.00;2.47;;;23.10;59.40;;;;;;6292836;28;20064;-72
2021/09/28 07:28:36;;;;;;;3.80;2.20;;;23.10;59.40;;;;;;6291811;28;20056;-72
2021/09/28 07:31:36;;;;;;;3.33;2.00;;;23.10;59.40;;;;;;6292672;28;20055;-72
2021/09/28 07:34:37;;;;;;;3.15;1.67;;;23.10;59.40;;;;;;6292196;28;20063;-72
2021/09/28 07:37:38;;;;;;;3.58;1.90;;;23.10;59.40;;;;;;6292289;28;20060;-72
2021/09/28 07:40:43;;;;;;;3.53;2.00;;;23.10;59.40;;;;;;6291821;28;20025;-72
2021/09/28 07:43:45;;;;;;;2.60;1.88;;;23.10;59.40;;;;;;6292263;28;20021;-71
2021/09/28 07:46:45;;;;;;;4.80;1.90;;;23.10;59.40;;;;;;6272090;28;20048;-72
2021/09/28 07:49:46;;;;;;;3.95;1.67;;;23.10;59.40;;;;;;6292419;28;20033;-72
2021/09/28 07:52:46;;;;;;;3.00;1.75;;;23.10;59.40;;;;;;6292415;28;20023;-72
2021/09/28 07:55:47;;;;;;;3.70;1.83;;;23.10;59.40;;;;;;6292430;28;20099;-72
2021/09/28 07:58:48;;;;;;;3.88;2.40;;;23.10;59.30;;;;;;6292019;28;20060;-72
2021/09/28 08:01:48;;;;;;;2.90;2.00;;;23.10;59.30;;;;;;6292039;28;20029;-72
2021/09/28 08:04:49;;;;;;;2.78;1.60;;;23.10;59.30;;;;;;6295653;28;20021;-72
2021/09/28 08:07:49;;;;;;;1.88;1.55;;;23.10;59.30;;;;;;6296864;28;20032;-72
2021/09/28 08:10:50;;;;;;;3.50;1.80;;;23.10;59.30;;;;;;6296285;28;20147;-72
2021/09/28 08:13:51;;;;;;;2.92;1.70;;;23.10;59.30;;;;;;6294717;28;20068;-72
2021/09/28 08:16:51;;;;;;;2.95;1.50;;;23.10;59.30;;;;;;6289919;28;20032;-72
2021/09/28 08:19:54;;;;;;;4.22;2.00;;;23.20;59.40;;;;;;6296828;28;20028;-72
2021/09/28 08:22:56;;;;;;;6.20;1.52;;;23.10;59.30;;;;;;6296373;28;20040;-73
2021/09/28 08:29:10;;;;;;;4.60;1.65;;;23.10;59.30;;;;;;6296324;28;20430;-72
2021/09/28 08:32:12;;;;;;;3.15;1.60;;;23.10;59.30;;;;;;6295959;28;20399;-72
2021/09/28 08:35:12;;;;;;;3.40;1.98;;;23.10;59.40;;;;;;6296136;28;20483;-73
2021/09/28 08:38:14;;;;;;;2.10;1.48;;;23.10;59.30;;;;;;6296113;28;20090;-72
2021/09/28 08:41:15;;;;;;;3.35;1.60;;;23.10;59.30;;;;;;6295552;28;20035;-72
2021/09/28 08:44:17;;;;;;;3.25;1.67;;;23.10;59.30;;;;;;6295919;28;20021;-73
2021/09/28 08:47:38;;;;;;;2.67;1.52;;;23.10;59.30;;;;;;6295810;28;20459;-72
2021/09/28 08:50:40;;;;;;;2.95;1.60;;;23.10;59.30;;;;;;6295089;28;20094;-73
2021/09/28 08:53:41;;;;;;;1.77;1.20;;;23.10;59.30;;;;;;6295653;28;20495;-73
2021/09/28 08:56:43;;;;;;;2.50;1.50;;;23.10;59.30;;;;;;6295702;28;20021;-72
2021/09/28 08:59:49;;;;;;;2.58;1.48;;;23.20;59.40;;;;;;6295585;28;20025;-72
2021/09/28 09:02:50;;;;;;;1.40;1.30;;;23.10;59.30;;;;;;6295049;28;20032;-72
2021/09/28 09:05:50;;;;;;;2.53;1.30;;;23.10;59.30;;;;;;6295928;28;20381;-72
2021/09/28 09:09:00;;;;;;;1.75;1.23;;;23.10;59.30;;;;;;6294782;28;20067;-72
2021/09/28 09:12:01;;;;;;;1.67;1.38;;;23.10;59.30;;;;;;6295277;28;20067;-72
2021/09/28 09:15:27;;;;;;;3.15;1.20;;;23.10;59.30;;;;;;6282971;28;20021;-72
2021/09/28 09:18:28;;;;;;;2.70;1.50;;;23.10;59.30;;;;;;6279854;28;20387;-72
2021/09/28 09:21:40;;;;;;;1.73;1.27;;;23.10;59.30;;;;;;6295161;28;20028;-73
2021/09/28 09:24:47;;;;;;;1.75;1.10;;;23.10;59.30;;;;;;6294716;28;20043;-73
2021/09/28 09:27:49;;;;;;;1.25;0.93;;;23.10;59.20;;;;;;6294142;28;20028;-72
2021/09/28 09:30:50;;;;;;;1.63;1.17;;;23.10;59.20;;;;;;6295194;28;20029;-72
2021/09/28 09:33:54;;;;;;;1.85;1.00;;;23.10;59.30;;;;;;6295100;28;20399;-72
2021/09/28 09:37:03;;;;;;;2.40;1.30;;;23.10;59.30;;;;;;6294639;28;20028;-72
2021/09/28 09:40:04;;;;;;;1.67;1.20;;;23.10;59.30;;;;;;6294355;28;20024;-73
2021/09/28 09:43:06;;;;;;;1.25;0.95;;;23.10;59.20;;;;;;6294456;28;20074;-72
2021/09/28 09:46:16;;;;;;;1.58;0.95;;;23.10;59.20;;;;;;6294090;28;20028;-72
2021/09/28 09:49:22;;;;;;;1.77;1.27;;;23.10;59.20;;;;;;6293997;28;20045;-72
2021/09/28 09:52:22;;;;;;;1.50;1.13;;;23.10;59.20;;;;;;6293638;28;20431;-72
2021/09/28 09:55:28;;;;;;;1.70;1.20;;;23.10;59.30;;;;;;6294564;28;20021;-72
2021/09/28 09:58:30;;;;;;;1.45;1.13;;;23.10;59.30;;;;;;6294374;28;20038;-72
2021/09/28 10:01:35;;;;;;;1.83;1.20;;;23.10;59.20;;;;;;6293725;28;20473;-72
2021/09/28 10:04:36;;;;;;;2.25;1.30;;;23.10;59.30;;;;;;6294006;28;20021;-72
2021/09/28 10:07:37;;;;;;;1.77;0.98;;;23.10;59.30;;;;;;6293724;28;20048;-72
2021/09/28 10:10:39;;;;;;;1.70;1.02;;;23.10;59.30;;;;;;6293384;28;20080;-73
2021/09/28 10:13:47;;;;;;;2.75;1.42;;;23.20;59.30;;;;;;6293198;28;20075;-72
2021/09/28 10:16:52;;;;;;;3.00;1.42;;;23.10;59.20;;;;;;6269410;28;20108;-72
2021/09/28 10:20:03;;;;;;;1.33;1.10;;;23.10;59.20;;;;;;6293731;28;20024;-72
2021/09/28 10:23:14;;;;;;;1.40;0.93;;;23.10;59.30;;;;;;6293501;28;20028;-72
2021/09/28 10:26:15;;;;;;;1.55;1.00;;;23.10;59.20;;;;;;6292687;28;20070;-72
2021/09/28 10:29:44;;;;;;;1.33;0.90;;;23.10;59.20;;;;;;6293675;28;20055;-72
2021/09/28 10:32:46;;;;;;;1.13;0.90;;;23.10;59.20;;;;;;6293478;28;20033;-72
2021/09/28 10:36:23;;;;;;;1.52;1.00;;;23.10;59.20;;;;;;6293212;28;20024;-72
2021/09/28 10:39:37;;;;;;;1.50;1.00;;;23.10;59.20;;;;;;6268447;28;20357;-72
2021/09/28 10:42:53;;;;;;;1.00;0.73;;;23.10;59.20;;;;;;6280624;28;20104;-72
2021/09/28 10:45:53;;;;;;;1.08;0.80;;;23.10;59.20;;;;;;6293760;28;20039;-72
2021/09/28 10:49:24;;;;;;;2.05;1.05;;;23.10;59.30;;;;;;6293233;28;20048;-72
2021/09/28 10:52:25;;;;;;;0.98;0.85;;;23.10;59.20;;;;;;6292789;28;20446;-72
2021/09/28 10:55:29;;;;;;;1.27;1.00;;;23.10;59.20;;;;;;6293456;28;20017;-72
2021/09/28 10:58:30;;;;;;;1.40;0.90;;;23.10;59.20;;;;;;6292393;28;20070;-72
2021/09/28 11:01:33;;;;;;;1.13;0.90;;;23.10;59.20;;;;;;6292317;28;20028;-71
2021/09/28 11:04:34;;;;;;;1.42;1.00;;;23.10;59.20;;;;;;6292690;28;20073;-72
2021/09/28 11:07:34;;;;;;;1.10;0.90;;;23.10;59.20;;;;;;6292804;28;20076;-72
2021/09/28 11:10:36;;;;;;;1.50;0.80;;;23.10;59.30;;;;;;6292573;28;20056;-72
2021/09/28 11:13:43;;;;;;;1.40;0.93;;;23.10;59.20;;;;;;6292801;28;20021;-71
2021/09/28 11:16:54;;;;;;;1.33;0.80;;;23.10;59.20;;;;;;6280249;28;20578;-72
2021/09/28 11:19:55;;;;;;;1.40;0.95;;;23.10;59.20;;;;;;6292860;28;20048;-71
2021/09/28 11:23:09;;;;;;;1.45;1.02;;;23.10;59.20;;;;;;6292795;28;20028;-72
2021/09/28 11:26:09;;;;;;;1.50;0.90;;;23.10;59.20;;;;;;6292244;28;20483;-72
2021/09/28 11:29:12;;;;;;;1.20;0.70;;;23.10;59.30;;;;;;6292630;28;20036;-72
2021/09/28 11:32:13;;;;;;;0.90;0.73;;;23.10;59.20;;;;;;6292028;28;20021;-72
2021/09/28 11:35:14;;;;;;;1.35;0.80;;;23.20;59.30;;;;;;6292840;28;20017;-72
2021/09/28 11:38:14;;;;;;;1.20;0.90;;;23.10;59.20;;;;;;6294577;28;20407;-72
2021/09/28 11:41:20;;;;;;;0.98;0.88;;;23.10;59.20;;;;;;6297508;28;20359;-72
2021/09/28 11:44:21;;;;;;;0.88;0.82;;;23.10;59.20;;;;;;6297568;28;20107;-72
2021/09/28 11:47:25;;;;;;;0.60;0.52;;;23.10;59.20;;;;;;6296672;28;20550;-72
2021/09/28 11:50:26;;;;;;;0.80;0.80;;;23.10;59.20;;;;;;6297120;28;20515;-71
2021/09/28 11:53:26;;;;;;;1.35;0.85;;;23.20;59.30;;;;;;6298021;28;20507;-72
2021/09/28 11:56:29;;;;;;;7.47;1.15;;;23.10;59.20;;;;;;6297721;28;20074;-72
2021/09/28 11:59:30;;;;;;;5.50;1.38;;;23.10;58.80;;;;;;6297897;28;20016;-72
2021/09/28 12:02:31;;;;;;;4.35;1.23;;;23.10;58.20;;;;;;6275772;28;20052;-72
2021/09/28 12:06:03;;;;;;;5.78;1.30;;;23.10;57.80;;;;;;6296952;28;20491;-72
2021/09/28 12:09:03;;;;;;;5.35;1.70;;;23.10;57.50;;;;;;6296678;28;20064;-72
2021/09/28 12:12:09;;;;;;;8.63;1.52;;;23.10;57.30;;;;;;6295304;28;20107;-72
2021/09/28 12:15:11;;;;;;;8.70;1.40;;;23.10;57.10;;;;;;6295891;28;20258;-72
2021/09/28 12:18:18;;;;;;;8.82;1.52;;;23.10;57.00;;;;;;6295448;28;20021;-72
2021/09/28 12:21:24;;;;;;;9.05;1.23;;;23.10;56.40;;;;;;6270935;28;20404;-72
2021/09/28 12:24:28;;;;;;;7.30;1.40;;;23.10;56.10;;;;;;6293041;28;20111;-72
2021/09/28 12:27:30;;;;;;;7.60;1.30;;;23.10;56.60;;;;;;6295304;28;20024;-72
2021/09/28 12:30:49;;;;;;;6.00;1.65;;;23.10;57.60;;;;;;6295514;28;20531;-72
2021/09/28 12:33:57;;;;;;;9.52;1.55;;;23.10;57.90;;;;;;6295519;28;20111;-72
2021/09/28 12:37:02;;;;;;;5.53;1.40;;;23.20;58.10;;;;;;6295358;28;20059;-71
2021/09/28 12:40:07;;;;;;;5.45;1.52;;;23.20;58.30;;;;;;6296548;28;20581;-72
2021/09/28 12:43:17;;;;;;;;;;;23.20;58.40;;;;;;6295417;28;20515;-72
2021/09/28 12:46:21;;;;;;;5.65;1.45;;;23.20;58.40;;;;;;6295485;28;19904;-72
2021/09/28 12:49:33;;;;;;;2.22;1.08;;;23.10;58.40;;;;;;6294454;28;20050;-72
2021/09/28 12:52:33;;;;;;;3.78;1.25;;;23.10;58.50;;;;;;6294552;28;20017;-72
2021/09/28 12:55:36;;;;;;;5.18;1.00;;;23.10;58.50;;;;;;6285686;28;20357;-72
2021/09/28 12:58:38;;;;;;;7.80;1.38;;;23.10;58.50;;;;;;6289012;28;20036;-72
2021/09/28 13:01:48;;;;;;;2.50;0.88;;;23.20;58.60;;;;;;6293149;28;20028;-72
2021/09/28 13:04:49;;;;;;;3.45;1.02;;;23.10;58.50;;;;;;6294161;28;20399;-72
2021/09/28 13:07:51;;;;;;;3.90;1.55;;;23.10;58.50;;;;;;6288987;28;20035;-72
2021/09/28 13:10:54;;;;;;;2.33;1.00;;;23.10;58.60;;;;;;6294261;28;20396;-72
2021/09/28 13:13:54;;;;;;;2.10;1.00;;;23.10;58.60;;;;;;6292261;28;20068;-73
2021/09/28 13:16:58;;;;;;;5.65;1.08;;;23.10;58.60;;;;;;6276811;28;20032;-72
2021/09/28 13:20:00;;;;;;;1.23;0.60;;;23.20;58.60;;;;;;6294759;28;20032;-71
2021/09/28 13:23:01;;;;;;;2.95;1.08;;;23.10;58.60;;;;;;6293563;28;20036;-72
2021/09/28 13:26:01;;;;;;;3.05;0.90;;;23.10;58.60;;;;;;6294825;28;20526;-71
2021/09/28 13:29:02;;;;;;;2.47;0.95;;;23.10;58.60;;;;;;6293823;28;20079;-72
2021/09/28 13:32:04;;;;;;;1.90;0.90;;;23.10;58.60;;;;;;6293602;28;20100;-72
2021/09/28 13:35:05;;;;;;;1.40;0.80;;;23.10;59.40;;;;;;6294694;28;20107;-72
2021/09/28 13:38:05;;;;;;;1.48;0.90;;;23.10;58.70;;;;;;6294344;28;20074;-72
2021/09/28 13:41:06;;;;;;;1.65;0.85;;;23.10;58.70;;;;;;6293651;28;20056;-72
2021/09/28 13:44:06;;;;;;;3.95;0.70;;;23.10;58.70;;;;;;6293798;28;20103;-72
2021/09/28 13:47:07;;;;;;;1.65;0.75;;;23.10;58.70;;;;;;6293487;28;20032;-72
2021/09/28 13:50:08;;;;;;;1.52;0.85;;;23.10;58.70;;;;;;6293486;28;20032;-72
2021/09/28 13:53:08;;;;;;;2.47;0.90;;;23.10;58.70;;;;;;6293392;28;20028;-72
2021/09/28 13:56:09;;;;;;;2.50;1.00;;;23.10;58.70;;;;;;6293086;28;20037;-72
2021/09/28 13:59:10;;;;;;;2.08;0.90;;;23.10;58.70;;;;;;6293563;28;20028;-72
2021/09/28 14:02:10;;;;;;;1.27;0.88;;;23.10;58.70;;;;;;6292012;28;20039;-72
2021/09/28 14:05:12;;;;;;;1.27;0.70;;;23.10;58.70;;;;;;6293494;28;20116;-72
2021/09/28 14:08:13;;;;;;;1.88;0.95;;;23.10;58.70;;;;;;6292828;28;20048;-72
2021/09/28 14:11:14;;;;;;;2.60;0.73;;;23.10;58.70;;;;;;6292353;28;20397;-72
2021/09/28 14:14:16;;;;;;;1.52;0.70;;;23.10;58.70;;;;;;6287666;28;20036;-72
2021/09/28 14:17:16;;;;;;;2.00;0.80;;;23.10;58.70;;;;;;6284933;28;20021;-72
2021/09/28 14:20:17;;;;;;;1.75;0.70;;;23.20;58.80;;;;;;6293261;28;20670;-72
2021/09/28 14:23:17;;;;;;;1.15;0.85;;;23.10;58.70;;;;;;6292399;28;20141;-72
2021/09/28 14:26:18;;;;;;;0.93;0.63;;;23.10;58.70;;;;;;6292421;28;20095;-72
2021/09/28 14:29:18;;;;;;;1.65;0.80;;;23.10;58.70;;;;;;6292384;28;20036;-72
2021/09/28 14:32:19;;;;;;;2.50;0.63;;;23.10;58.70;;;;;;6291797;28;20032;-72
2021/09/28 14:35:20;;;;;;;1.63;0.60;;;23.20;58.80;;;;;;6293980;28;20028;-72
2021/09/28 14:38:20;;;;;;;2.70;0.85;;;23.10;58.70;;;;;;6293321;28;20039;-72
2021/09/28 14:41:21;;;;;;;3.00;0.90;;;23.10;58.10;;;;;;6292736;28;20032;-72
2021/09/28 14:44:21;;;;;;;4.07;0.98;;;23.10;57.50;;;;;;6293409;28;20035;-72
2021/09/28 14:47:22;;;;;;;4.95;1.20;;;23.10;55.70;;;;;;6293027;28;20028;-72
2021/09/28 14:50:23;;;;;;;5.50;1.13;;;23.10;55.70;;;;;;6293390;28;20054;-72
2021/09/28 14:53:23;;;;;;;5.60;1.25;;;23.20;55.30;;;;;;6291933;28;20402;-72
2021/09/28 14:56:24;;;;;;;10.32;1.67;;;23.10;54.20;;;;;;6292272;28;20024;-72
2021/09/28 14:59:25;;;;;;;3.50;1.00;;;23.10;54.50;;;;;;6292892;28;20024;-72
2021/09/28 15:02:25;;;;;;;4.05;1.60;;;23.10;54.50;;;;;;6291951;28;20020;-72
2021/09/28 15:05:31;;;;;;;3.85;1.25;;;23.10;54.10;;;;;;6292785;28;20029;-72
2021/09/28 15:08:32;;;;;;;3.60;1.10;;;23.10;54.20;;;;;;6291323;28;20210;-72
2021/09/28 15:11:32;;;;;;;7.13;1.95;;;23.10;54.50;;;;;;6291721;28;20020;-72
2021/09/28 15:14:33;;;;;;;4.47;1.30;;;23.10;54.60;;;;;;6294374;28;20082;-72
2021/09/28 15:17:33;;;;;;;6.10;1.50;;;23.10;54.40;;;;;;6300243;28;20024;-72
2021/09/28 15:20:34;;;;;;;4.05;1.33;;;23.10;53.90;;;;;;6300431;28;20031;-72
2021/09/28 15:23:34;;;;;;;12.00;1.83;;;23.10;53.80;;;;;;6300519;28;20036;-72
2021/09/28 15:26:37;;;;;;;6.07;1.60;;;23.10;53.40;;;;;;6300165;28;20029;-72
2021/09/28 15:29:37;;;;;;;6.40;1.75;;;23.10;53.70;;;;;;6300632;28;20391;-72
2021/09/28 15:32:39;;;;;;;5.82;1.55;;;23.10;53.70;;;;;;6299676;28;20081;-72
2021/09/28 15:35:40;;;;;;;8.98;2.40;;;23.10;53.80;;;;;;6299724;28;20383;-72
2021/09/28 15:38:55;;;;;;;5.70;1.52;;;23.10;54.10;;;;;;6299426;28;20028;-72
2021/09/28 15:41:56;;;;;;;6.82;1.58;;;23.10;53.90;;;;;;6298980;28;20024;-72
2021/09/28 15:44:58;;;;;;;6.20;1.80;;;23.10;53.80;;;;;;6300599;28;20040;-72
2021/09/28 15:47:59;;;;;;;7.53;1.92;;;23.10;54.00;;;;;;6300321;28;20028;-72